createdAt,value
2019-02-27T00:00:29.375Z,5.20
2019-02-27T00:02:58.075Z,5.20
2019-02-27T00:05:26.874Z,5.77
2019-02-27T00:07:55.433Z,5.97
2019-02-27T00:10:24.232Z,5.60
2019-02-27T00:12:52.841Z,5.73
2019-02-27T00:15:21.470Z,5.30
2019-02-27T00:17:51.481Z,5.75
2019-02-27T00:20:20.472Z,4.70
2019-02-27T00:22:50.658Z,5.07
2019-02-27T00:25:19.386Z,5.57
2019-02-27T00:27:49.315Z,6.40
2019-02-27T00:30:18.510Z,6.00
2019-02-27T00:32:50.939Z,5.77
2019-02-27T00:35:17.395Z,5.80
2019-02-27T00:37:45.989Z,5.37
2019-02-27T00:40:14.707Z,5.27
2019-02-27T00:42:43.247Z,5.57
2019-02-27T00:45:12.347Z,4.92
2019-02-27T00:47:41.019Z,5.13
2019-02-27T00:50:10.202Z,5.27
2019-02-27T00:52:38.735Z,4.90
2019-02-27T00:55:08.499Z,5.00
2019-02-27T00:57:37.057Z,4.75
2019-02-27T01:00:09.449Z,4.90
2019-02-27T01:02:38.059Z,5.40
2019-02-27T01:05:09.187Z,4.93
2019-02-27T01:07:37.639Z,5.07
2019-02-27T01:10:12.032Z,4.70
2019-02-27T01:12:39.222Z,4.30
2019-02-27T01:15:13.114Z,4.75
2019-02-27T01:17:41.954Z,4.17
2019-02-27T01:20:12.901Z,5.57
2019-02-27T01:22:41.530Z,4.63
2019-02-27T01:25:10.439Z,4.10
2019-02-27T01:27:38.974Z,4.53
2019-02-27T01:30:15.464Z,4.30
2019-02-27T01:32:44.104Z,4.37
2019-02-27T01:35:17.443Z,3.57
2019-02-27T01:37:44.370Z,4.10
2019-02-27T01:40:17.215Z,3.87
2019-02-27T01:42:45.067Z,4.07
2019-02-27T01:45:20.676Z,3.90
2019-02-27T01:47:45.983Z,4.17
2019-02-27T01:50:26.277Z,4.17
2019-02-27T01:52:54.890Z,4.10
2019-02-27T01:55:23.536Z,4.23
2019-02-27T01:57:52.130Z,3.97
2019-02-27T02:00:22.989Z,4.10
2019-02-27T02:02:51.058Z,3.70
2019-02-27T02:05:19.716Z,3.80
2019-02-27T02:07:48.720Z,3.93
2019-02-27T02:10:17.615Z,3.83
2019-02-27T02:12:49.370Z,3.83
2019-02-27T02:15:36.096Z,4.00
2019-02-27T02:18:25.490Z,4.47
2019-02-27T02:21:23.602Z,4.40
2019-02-27T02:24:09.510Z,4.27
2019-02-27T02:26:59.217Z,3.58
2019-02-27T02:29:53.734Z,3.93
2019-02-27T02:32:40.251Z,3.80
2019-02-27T02:35:34.117Z,5.00
2019-02-27T02:38:17.445Z,4.30
2019-02-27T02:40:54.866Z,4.17
2019-02-27T02:43:55.200Z,4.37
2019-02-27T02:46:45.482Z,3.90
2019-02-27T02:49:23.950Z,3.80
2019-02-27T02:52:05.559Z,4.10
2019-02-27T02:55:13.500Z,4.20
2019-02-27T02:57:47.995Z,4.10
2019-02-27T03:00:25.880Z,3.73
2019-02-27T03:03:00.709Z,4.60
2019-02-27T03:05:35.891Z,4.33
2019-02-27T03:08:22.739Z,4.20
2019-02-27T03:11:19.793Z,4.43
2019-02-27T03:14:07.660Z,4.43
2019-02-27T03:16:48.286Z,4.57
2019-02-27T03:19:41.253Z,5.23
2019-02-27T03:22:10.989Z,4.90
2019-02-27T03:25:03.472Z,4.87
2019-02-27T03:27:34.737Z,4.97
2019-02-27T03:30:18.367Z,5.40
2019-02-27T03:33:10.802Z,5.00
2019-02-27T03:36:09.496Z,5.17
2019-02-27T03:39:01.275Z,5.67
2019-02-27T03:41:59.348Z,6.00
2019-02-27T03:44:40.959Z,5.47
2019-02-27T03:47:28.823Z,6.43
2019-02-27T03:50:15.808Z,6.03
2019-02-27T03:52:50.321Z,5.77
2019-02-27T03:55:32.876Z,6.23
2019-02-27T03:58:06.962Z,6.27
2019-02-27T04:00:43.097Z,6.40
2019-02-27T04:03:34.205Z,6.73
2019-02-27T04:06:26.714Z,6.50
2019-02-27T04:08:59.538Z,7.30
2019-02-27T04:11:28.369Z,6.47
2019-02-27T04:14:03.319Z,6.07
2019-02-27T04:16:29.394Z,6.43
2019-02-27T04:19:03.151Z,6.40
2019-02-27T04:21:28.227Z,6.83
2019-02-27T04:23:56.771Z,6.10
2019-02-27T04:26:25.420Z,6.93
2019-02-27T04:28:53.949Z,6.62
2019-02-27T04:31:22.490Z,6.30
2019-02-27T04:33:50.987Z,6.03
2019-02-27T04:36:20.040Z,6.40
2019-02-27T04:38:48.575Z,6.40
2019-02-27T04:41:18.123Z,6.17
2019-02-27T04:43:47.155Z,5.43
2019-02-27T04:46:15.651Z,5.97
2019-02-27T04:48:44.130Z,7.35
2019-02-27T04:51:16.899Z,6.23
2019-02-27T04:53:42.815Z,5.97
2019-02-27T04:56:11.350Z,6.03
2019-02-27T04:58:42.759Z,6.70
2019-02-27T05:01:10.183Z,5.97
2019-02-27T05:03:38.728Z,6.73
2019-02-27T05:06:07.219Z,5.47
2019-02-27T05:08:35.718Z,6.47
2019-02-27T05:11:04.320Z,6.13
2019-02-27T05:13:34.529Z,6.73
2019-02-27T05:16:03.232Z,7.23
2019-02-27T05:18:31.733Z,6.80
2019-02-27T05:21:00.265Z,6.47
2019-02-27T05:23:30.888Z,6.13
2019-02-27T05:25:59.048Z,7.10
2019-02-27T05:28:27.518Z,7.50
2019-02-27T05:30:56.147Z,6.87
2019-02-27T05:33:24.680Z,6.73
2019-02-27T05:35:57.044Z,7.23
2019-02-27T05:38:23.508Z,6.83
2019-02-27T05:40:52.071Z,6.93
2019-02-27T05:43:20.652Z,7.33
2019-02-27T05:45:49.216Z,7.47
2019-02-27T05:48:19.914Z,6.53
2019-02-27T05:50:48.038Z,6.97
2019-02-27T05:53:16.571Z,7.53
2019-02-27T05:55:45.132Z,7.47
2019-02-27T05:58:13.673Z,7.13
2019-02-27T06:00:42.319Z,7.07
2019-02-27T06:03:10.786Z,8.73
2019-02-27T06:05:39.396Z,8.33
2019-02-27T06:08:07.878Z,8.00
2019-02-27T06:10:36.474Z,7.47
2019-02-27T06:13:05.108Z,9.20
2019-02-27T06:15:33.723Z,7.73
2019-02-27T06:18:02.195Z,7.53
2019-02-27T06:20:30.762Z,9.77
2019-02-27T06:22:59.299Z,8.03
2019-02-27T06:25:26.786Z,7.90
2019-02-27T06:27:55.322Z,7.30
2019-02-27T06:30:23.962Z,8.57
2019-02-27T06:32:52.429Z,9.03
2019-02-27T06:35:21.140Z,8.67
2019-02-27T06:37:50.762Z,8.50
2019-02-27T06:40:20.021Z,8.63
2019-02-27T06:42:53.435Z,9.43
2019-02-27T06:45:19.292Z,7.73
2019-02-27T06:47:48.219Z,7.97
2019-02-27T06:50:17.429Z,13.70
2019-02-27T06:52:46.066Z,9.40
2019-02-27T06:55:15.481Z,9.37
2019-02-27T06:57:44.199Z,8.63
2019-02-27T07:00:17.815Z,8.93
2019-02-27T07:02:46.445Z,16.17
2019-02-27T07:05:15.160Z,12.53
2019-02-27T07:07:43.804Z,9.98
2019-02-27T07:10:19.621Z,9.77
2019-02-27T07:12:45.141Z,11.30
2019-02-27T07:15:21.239Z,9.97
2019-02-27T07:17:49.817Z,10.00
2019-02-27T07:20:18.417Z,15.03
2019-02-27T07:22:47.120Z,16.60
2019-02-27T07:25:20.143Z,12.33
2019-02-27T07:27:48.674Z,10.87
2019-02-27T07:30:23.714Z,8.80
2019-02-27T07:32:51.956Z,8.83
2019-02-27T07:35:20.421Z,10.73
2019-02-27T07:37:48.896Z,8.53
2019-02-27T07:40:18.613Z,11.80
2019-02-27T07:42:47.347Z,10.27
2019-02-27T07:45:23.124Z,11.27
2019-02-27T07:47:51.723Z,12.37
2019-02-27T07:50:21.118Z,9.43
2019-02-27T07:52:51.814Z,11.20
2019-02-27T07:55:22.909Z,11.67
2019-02-27T07:57:50.356Z,10.93
2019-02-27T08:00:20.387Z,11.38
2019-02-27T08:02:48.986Z,9.47
2019-02-27T08:05:17.857Z,9.93
2019-02-27T08:07:49.114Z,10.03
2019-02-27T08:10:24.799Z,9.10
2019-02-27T08:12:56.440Z,10.53
2019-02-27T08:15:25.295Z,11.10
2019-02-27T08:17:57.435Z,11.07
2019-02-27T08:20:24.458Z,11.13
2019-02-27T08:22:53.076Z,10.73
2019-02-27T08:25:21.724Z,11.27
2019-02-27T08:27:50.328Z,10.27
2019-02-27T08:30:29.221Z,10.67
2019-02-27T08:32:57.827Z,10.67
2019-02-27T08:35:26.363Z,12.77
2019-02-27T08:38:02.204Z,9.60
2019-02-27T08:40:25.401Z,9.03
2019-02-27T08:42:53.829Z,8.18
2019-02-27T08:45:26.703Z,9.00
2019-02-27T08:47:52.717Z,9.60
2019-02-27T08:50:22.490Z,10.90
2019-02-27T08:52:51.873Z,9.83
2019-02-27T08:55:22.521Z,8.00
2019-02-27T08:57:56.018Z,7.80
2019-02-27T09:00:32.784Z,6.93
2019-02-27T09:03:02.927Z,7.08
2019-02-27T09:05:31.834Z,7.92
2019-02-27T09:08:00.524Z,6.80
2019-02-27T09:10:30.644Z,6.22
2019-02-27T09:13:05.487Z,6.72
2019-02-27T09:15:29.719Z,4.72
2019-02-27T09:17:59.268Z,4.75
2019-02-27T09:20:28.594Z,5.60
2019-02-27T09:22:57.085Z,5.25
2019-02-27T09:25:25.648Z,5.30
2019-02-27T09:27:54.179Z,5.22
2019-02-27T09:30:28.795Z,5.92
2019-02-27T09:32:54.139Z,5.87
2019-02-27T09:35:22.778Z,8.43
2019-02-27T09:37:52.047Z,8.58
2019-02-27T09:40:23.696Z,4.65
2019-02-27T09:42:53.050Z,8.23
2019-02-27T09:45:25.199Z,4.80
2019-02-27T09:47:53.852Z,4.72
2019-02-27T09:50:25.349Z,4.30
2019-02-27T09:52:53.920Z,5.30
2019-02-27T09:55:22.452Z,7.00
2019-02-27T09:57:51.085Z,4.92
2019-02-27T10:00:33.244Z,3.05
2019-02-27T10:03:02.053Z,3.00
2019-02-27T10:05:30.784Z,2.80
2019-02-27T10:07:59.346Z,3.67
2019-02-27T10:10:27.973Z,3.60
2019-02-27T10:12:56.540Z,4.28
2019-02-27T10:15:26.000Z,4.65
2019-02-27T10:17:54.880Z,5.47
2019-02-27T10:20:23.539Z,2.80
2019-02-27T10:22:53.292Z,2.33
2019-02-27T10:25:22.617Z,2.35
2019-02-27T10:27:51.252Z,3.67
2019-02-27T10:30:19.859Z,2.95
2019-02-27T10:32:48.390Z,3.08
2019-02-27T10:35:17.047Z,2.87
2019-02-27T10:37:50.263Z,3.60
2019-02-27T10:40:18.715Z,3.22
2019-02-27T10:42:50.326Z,3.70
2019-02-27T10:45:17.737Z,3.17
2019-02-27T10:47:46.273Z,3.52
2019-02-27T10:50:15.683Z,2.98
2019-02-27T10:52:44.298Z,4.15
2019-02-27T10:55:15.852Z,6.85
2019-02-27T10:57:44.453Z,3.15
2019-02-27T11:00:25.811Z,3.70
2019-02-27T11:02:54.454Z,3.50
2019-02-27T11:05:23.748Z,3.62
2019-02-27T11:07:53.031Z,4.90
2019-02-27T11:10:22.404Z,4.65
2019-02-27T11:12:51.042Z,5.20
2019-02-27T11:15:20.752Z,3.45
2019-02-27T11:17:49.557Z,3.80
2019-02-27T11:20:20.837Z,4.45
2019-02-27T11:22:48.628Z,4.62
2019-02-27T11:25:22.287Z,12.33
2019-02-27T11:27:49.782Z,5.53
2019-02-27T11:30:20.616Z,4.70
2019-02-27T11:32:49.242Z,4.12
2019-02-27T11:35:17.855Z,4.72
2019-02-27T11:37:47.509Z,7.15
2019-02-27T11:40:18.587Z,4.00
2019-02-27T11:42:47.214Z,6.65
2019-02-27T11:45:17.027Z,4.60
2019-02-27T11:47:48.034Z,5.15
2019-02-27T11:50:17.854Z,4.40
2019-02-27T11:52:49.038Z,5.45
2019-02-27T11:55:19.760Z,3.30
2019-02-27T11:57:48.431Z,3.72
2019-02-27T12:00:26.521Z,4.45
2019-02-27T12:02:55.327Z,3.75
2019-02-27T12:05:24.050Z,5.12
2019-02-27T12:07:52.787Z,4.05
2019-02-27T12:10:31.815Z,3.50
2019-02-27T12:13:01.290Z,2.80
2019-02-27T12:15:30.313Z,3.20
2019-02-27T12:18:00.475Z,4.67
2019-02-27T12:20:29.277Z,4.12
2019-02-27T12:22:57.887Z,3.60
2019-02-27T12:25:28.103Z,3.77
2019-02-27T12:27:57.073Z,4.97
2019-02-27T12:30:27.367Z,3.27
2019-02-27T12:32:57.046Z,4.78
2019-02-27T12:35:33.251Z,3.22
2019-02-27T12:38:07.191Z,4.15
2019-02-27T12:40:32.145Z,4.60
2019-02-27T12:43:00.671Z,4.00
2019-02-27T12:45:30.593Z,2.92
2019-02-27T12:47:59.222Z,3.55
2019-02-27T12:50:31.087Z,3.50
2019-02-27T12:52:59.290Z,3.95
2019-02-27T12:55:27.928Z,3.47
2019-02-27T12:57:56.569Z,2.75
2019-02-27T13:00:27.487Z,3.37
2019-02-27T13:02:56.191Z,4.00
2019-02-27T13:05:27.335Z,3.17
2019-02-27T13:07:55.159Z,3.98
2019-02-27T13:10:33.127Z,3.20
2019-02-27T13:12:57.928Z,3.92
2019-02-27T13:15:30.271Z,6.72
2019-02-27T13:17:58.872Z,4.00
2019-02-27T13:20:30.391Z,3.10
2019-02-27T13:23:03.848Z,3.05
2019-02-27T13:25:30.348Z,3.77
2019-02-27T13:27:59.057Z,3.33
2019-02-27T13:30:30.372Z,3.85
2019-02-27T13:33:01.364Z,5.60
2019-02-27T13:35:29.312Z,4.78
2019-02-27T13:37:57.942Z,8.35
2019-02-27T13:40:28.687Z,7.12
2019-02-27T13:42:57.439Z,2.95
2019-02-27T13:45:28.208Z,4.30
2019-02-27T13:47:58.805Z,3.87
2019-02-27T13:50:27.176Z,3.00
2019-02-27T13:52:55.774Z,3.70
2019-02-27T13:55:24.668Z,2.47
2019-02-27T13:57:53.262Z,2.83
2019-02-27T14:00:37.026Z,3.55
2019-02-27T14:03:05.631Z,3.70
2019-02-27T14:05:35.997Z,2.98
2019-02-27T14:08:04.602Z,3.00
2019-02-27T14:10:34.244Z,3.17
2019-02-27T14:13:02.816Z,3.10
2019-02-27T14:15:31.904Z,3.42
2019-02-27T14:18:00.621Z,3.50
2019-02-27T14:20:29.441Z,3.67
2019-02-27T14:22:58.240Z,3.10
2019-02-27T14:25:34.101Z,6.33
2019-02-27T14:28:02.813Z,10.35
2019-02-27T14:30:43.368Z,6.35
2019-02-27T14:33:11.825Z,4.17
2019-02-27T14:35:40.430Z,4.08
2019-02-27T14:38:09.020Z,3.92
2019-02-27T14:40:40.968Z,5.00
2019-02-27T14:43:08.099Z,5.45
2019-02-27T14:45:39.433Z,8.75
2019-02-27T14:48:07.048Z,4.97
2019-02-27T14:50:35.653Z,4.83
2019-02-27T14:53:04.286Z,4.20
2019-02-27T14:55:36.116Z,4.92
2019-02-27T14:58:03.247Z,6.10
2019-02-27T15:00:33.169Z,6.55
2019-02-27T15:03:01.779Z,5.78
2019-02-27T15:05:30.415Z,5.42
2019-02-27T15:07:59.014Z,4.28
2019-02-27T15:10:27.630Z,4.33
2019-02-27T15:12:56.269Z,4.80
2019-02-27T15:15:30.587Z,8.53
2019-02-27T15:17:59.596Z,6.15
2019-02-27T15:20:29.363Z,6.80
2019-02-27T15:22:58.185Z,6.30
2019-02-27T15:25:27.773Z,4.60
2019-02-27T15:27:58.677Z,6.20
2019-02-27T15:30:30.961Z,6.92
2019-02-27T15:33:03.808Z,7.00
2019-02-27T15:35:29.887Z,3.80
2019-02-27T15:37:58.726Z,3.22
2019-02-27T15:40:29.851Z,3.80
2019-02-27T15:42:58.621Z,3.52
2019-02-27T15:45:28.149Z,3.52
2019-02-27T15:47:57.063Z,3.17
2019-02-27T15:50:31.509Z,5.83
2019-02-27T15:53:00.106Z,3.15
2019-02-27T15:55:32.774Z,4.87
2019-02-27T15:57:59.078Z,4.08
2019-02-27T16:00:28.392Z,3.65
2019-02-27T16:02:56.914Z,4.37
2019-02-27T16:05:30.149Z,3.83
2019-02-27T16:07:55.891Z,4.42
2019-02-27T16:10:30.726Z,4.62
2019-02-27T16:13:01.110Z,4.53
2019-02-27T16:15:29.537Z,3.22
2019-02-27T16:17:58.058Z,3.27
2019-02-27T16:20:27.802Z,3.33
2019-02-27T16:22:56.409Z,5.83
2019-02-27T16:25:28.829Z,4.47
2019-02-27T16:27:57.468Z,5.53
2019-02-27T16:30:33.677Z,6.55
2019-02-27T16:33:02.322Z,21.23
2019-02-27T16:35:30.933Z,21.52
2019-02-27T16:37:59.537Z,18.15
2019-02-27T16:40:30.125Z,23.75
2019-02-27T16:42:58.667Z,25.95
2019-02-27T16:45:33.860Z,31.82
2019-02-27T16:48:00.546Z,11.88
2019-02-27T16:50:29.234Z,7.62
2019-02-27T16:52:57.827Z,7.72
2019-02-27T16:55:27.346Z,8.20
2019-02-27T16:57:57.470Z,13.22
2019-02-27T17:00:30.767Z,12.93
2019-02-27T17:02:59.654Z,15.63
2019-02-27T17:05:28.289Z,18.73
2019-02-27T17:08:00.400Z,18.62
2019-02-27T17:10:32.938Z,8.48
2019-02-27T17:13:01.552Z,4.10
2019-02-27T17:15:34.793Z,7.78
2019-02-27T17:18:00.473Z,6.47
2019-02-27T17:20:29.552Z,13.18
2019-02-27T17:22:58.345Z,38.85
2019-02-27T17:25:29.917Z,25.20
2019-02-27T17:27:57.027Z,30.92
2019-02-27T17:30:37.920Z,30.62
2019-02-27T17:33:06.837Z,25.70
2019-02-27T17:35:35.475Z,21.10
2019-02-27T17:38:04.107Z,22.87
2019-02-27T17:40:36.499Z,38.35
2019-02-27T17:43:03.937Z,34.50
2019-02-27T17:45:32.487Z,24.03
2019-02-27T17:48:01.077Z,21.73
2019-02-27T17:50:31.722Z,23.45
2019-02-27T17:53:00.065Z,32.30
2019-02-27T17:55:28.708Z,31.17
2019-02-27T17:57:58.507Z,25.72
2019-02-27T18:00:40.818Z,19.53
2019-02-27T18:03:09.285Z,20.90
2019-02-27T18:05:37.900Z,24.90
2019-02-27T18:08:06.898Z,26.03
2019-02-27T18:10:37.541Z,41.60
2019-02-27T18:13:06.407Z,29.27
2019-02-27T18:15:35.421Z,64.93
2019-02-27T18:18:07.556Z,76.80
2019-02-27T18:20:34.740Z,39.00
2019-02-27T18:23:03.587Z,33.60
2019-02-27T18:25:32.174Z,42.87
2019-02-27T18:28:00.885Z,51.90
2019-02-27T18:30:29.710Z,24.87
2019-02-27T18:33:01.006Z,37.97
2019-02-27T18:35:29.771Z,31.63
2019-02-27T18:37:58.671Z,37.87
2019-02-27T18:40:27.336Z,32.83
2019-02-27T18:42:56.671Z,31.20
2019-02-27T18:45:28.357Z,38.33
2019-02-27T18:47:58.671Z,14.90
2019-02-27T18:50:27.313Z,20.33
2019-02-27T18:52:55.994Z,17.87
2019-02-27T18:55:29.215Z,17.57
2019-02-27T18:57:54.974Z,21.73
2019-02-27T19:00:25.017Z,27.33
2019-02-27T19:03:07.870Z,39.50
2019-02-27T19:05:38.237Z,40.10
2019-02-27T19:08:07.243Z,64.77
2019-02-27T19:10:41.271Z,57.70
2019-02-27T19:13:06.220Z,54.90
2019-02-27T19:15:34.873Z,50.60
2019-02-27T19:18:06.240Z,47.70
2019-02-27T19:20:39.640Z,35.83
2019-02-27T19:23:08.256Z,35.80
2019-02-27T19:25:36.860Z,30.17
2019-02-27T19:28:05.881Z,31.53
2019-02-27T19:30:34.817Z,34.13
2019-02-27T19:33:03.574Z,37.73
2019-02-27T19:35:32.210Z,41.43
2019-02-27T19:38:00.819Z,36.77
2019-02-27T19:40:30.513Z,37.43
2019-02-27T19:43:04.816Z,27.33
2019-02-27T19:45:35.917Z,20.00
2019-02-27T19:48:04.035Z,19.40
2019-02-27T19:50:32.568Z,34.30
2019-02-27T19:53:05.171Z,23.60
2019-02-27T19:55:31.548Z,43.90
2019-02-27T19:58:00.160Z,67.63
2019-02-27T20:00:33.852Z,64.47
2019-02-27T20:03:01.685Z,62.87
2019-02-27T20:05:30.464Z,61.50
2019-02-27T20:07:59.069Z,76.37
2019-02-27T20:10:30.949Z,89.20
2019-02-27T20:12:58.154Z,73.27
2019-02-27T20:15:27.663Z,61.42
2019-02-27T20:17:56.507Z,77.57
2019-02-27T20:20:25.920Z,68.43
2019-02-27T20:22:55.353Z,51.37
2019-02-27T20:25:25.931Z,45.60
2019-02-27T20:27:58.026Z,36.33
2019-02-27T20:30:25.441Z,38.43
2019-02-27T20:32:54.386Z,34.93
2019-02-27T20:35:22.997Z,40.07
2019-02-27T20:37:51.641Z,52.30
2019-02-27T20:40:23.047Z,46.77
2019-02-27T20:42:54.837Z,53.57
2019-02-27T20:45:26.504Z,50.57
2019-02-27T20:47:57.655Z,51.77
2019-02-27T20:50:42.033Z,37.93
2019-02-27T20:53:12.813Z,55.67
2019-02-27T20:55:43.288Z,51.33
2019-02-27T20:58:16.308Z,59.60
2019-02-27T21:00:44.567Z,69.80
2019-02-27T21:03:14.847Z,67.93
2019-02-27T21:05:43.419Z,61.87
2019-02-27T21:08:11.898Z,76.20
2019-02-27T21:10:42.026Z,90.37
2019-02-27T21:13:15.638Z,57.80
2019-02-27T21:15:42.444Z,49.63
2019-02-27T21:18:11.080Z,51.23
2019-02-27T21:20:42.162Z,61.10
2019-02-27T21:23:10.027Z,54.77
2019-02-27T21:25:38.667Z,42.67
2019-02-27T21:28:07.945Z,50.47
2019-02-27T21:30:36.972Z,54.00
2019-02-27T21:33:08.239Z,51.60
2019-02-27T21:35:36.130Z,44.80
2019-02-27T21:38:04.745Z,40.00
2019-02-27T21:40:36.144Z,36.90
2019-02-27T21:43:03.712Z,34.80
2019-02-27T21:45:37.251Z,26.63
2019-02-27T21:48:02.803Z,22.80
2019-02-27T21:50:31.348Z,24.23
2019-02-27T21:52:59.837Z,23.10
2019-02-27T21:55:28.583Z,24.70
2019-02-27T21:57:58.096Z,22.70
2019-02-27T22:00:30.250Z,24.20
2019-02-27T22:03:03.713Z,23.80
2019-02-27T22:05:29.728Z,22.13
2019-02-27T22:07:58.341Z,21.00
2019-02-27T22:10:27.145Z,23.03
2019-02-27T22:12:55.752Z,18.17
2019-02-27T22:15:31.063Z,24.37
2019-02-27T22:17:59.666Z,28.27
2019-02-27T22:20:28.477Z,23.80
2019-02-27T22:22:57.017Z,25.20
2019-02-27T22:25:30.124Z,20.60
2019-02-27T22:27:58.293Z,18.87
2019-02-27T22:30:26.278Z,23.23
2019-02-27T22:32:54.931Z,35.10
2019-02-27T22:35:23.551Z,20.10
2019-02-27T22:37:52.765Z,19.20
2019-02-27T22:40:22.680Z,41.43
2019-02-27T22:42:51.405Z,32.00
2019-02-27T22:45:20.705Z,32.60
2019-02-27T22:47:50.203Z,34.93
2019-02-27T22:50:19.944Z,29.53
2019-02-27T22:52:54.217Z,22.23
2019-02-27T22:55:19.151Z,25.17
2019-02-27T22:57:47.711Z,25.50
2019-02-27T23:00:51.316Z,23.70
2019-02-27T23:03:25.002Z,26.73
2019-02-27T23:05:53.616Z,20.53
2019-02-27T23:08:23.211Z,20.33
2019-02-27T23:10:52.810Z,19.10
2019-02-27T23:13:21.459Z,12.73
2019-02-27T23:15:50.057Z,14.73
2019-02-27T23:18:18.685Z,15.17
2019-02-27T23:20:47.227Z,12.40
2019-02-27T23:23:15.837Z,14.53
2019-02-27T23:25:46.539Z,13.97
2019-02-27T23:28:14.844Z,9.90
2019-02-27T23:30:46.985Z,12.37
2019-02-27T23:33:13.851Z,11.57
2019-02-27T23:35:42.474Z,15.73
2019-02-27T23:38:11.035Z,19.50
2019-02-27T23:40:39.576Z,12.87
2019-02-27T23:43:08.215Z,13.30
2019-02-27T23:45:36.885Z,7.93
2019-02-27T23:48:05.588Z,9.73
2019-02-27T23:50:34.197Z,12.37
2019-02-27T23:53:02.754Z,12.73
2019-02-27T23:55:31.404Z,12.80
2019-02-27T23:57:59.879Z,12.07
